sensor_id;sensor_type;location;lat;lon;timestamp;P1;P2;P0
77516;PMS7003;68414;53.946;27.634;2023-09-08T00:00:43;11.216666;10.350000;8.483334
77516;PMS7003;68414;53.946;27.634;2023-09-08T00:01:43;10.050000;9.400000;7.366667
77516;PMS7003;68414;53.946;27.634;2023-09-08T00:02:43;11.483334;10.633333;8.316667
77516;PMS7003;68414;53.946;27.634;2023-09-08T00:03:43;10.766666;10.283334;8.266666
77516;PMS7003;68414;53.946;27.634;2023-09-08T00:04:43;11.583333;11.583333;8.500000
77516;PMS7003;68414;53.946;27.634;2023-09-08T00:05:43;9.700000;9.550000;6.883333
77516;PMS7003;68414;53.946;27.634;2023-09-08T00:06:43;10.883333;10.250000;7.983333
77516;PMS7003;68414;53.946;27.634;2023-09-08T00:07:43;13.983334;12.066667;9.050000
77516;PMS7003;68414;53.946;27.634;2023-09-08T00:08:43;11.333333;10.833333;8.533334
77516;PMS7003;68414;53.946;27.634;2023-09-08T00:09:43;10.950000;10.700000;7.933333
77516;PMS7003;68414;53.946;27.634;2023-09-08T00:10:43;13.116667;12.783334;9.533334
77516;PMS7003;68414;53.946;27.634;2023-09-08T00:11:43;13.400000;12.316667;9.533334
77516;PMS7003;68414;53.946;27.634;2023-09-08T00:12:43;13.916667;12.950000;9.216666
77516;PMS7003;68414;53.946;27.634;2023-09-08T00:13:43;12.683333;11.800000;9.816667
77516;PMS7003;68414;53.946;27.634;2023-09-08T00:14:43;12.366667;12.250000;9.550000
77516;PMS7003;68414;53.946;27.634;2023-09-08T00:15:43;14.350000;13.733334;9.483334
77516;PMS7003;68414;53.946;27.634;2023-09-08T00:16:43;13.933333;12.566667;9.550000
77516;PMS7003;68414;53.946;27.634;2023-09-08T00:17:45;13.716666;12.500000;9.166667
77516;PMS7003;68414;53.946;27.634;2023-09-08T00:18:43;10.550000;10.383333;8.066667
77516;PMS7003;68414;53.946;27.634;2023-09-08T00:19:43;11.516666;11.366667;8.416667
77516;PMS7003;68414;53.946;27.634;2023-09-08T00:20:43;11.700000;10.516666;7.750000
77516;PMS7003;68414;53.946;27.634;2023-09-08T00:21:43;9.916667;9.450000;7.450000
77516;PMS7003;68414;53.946;27.634;2023-09-08T00:22:43;11.116667;9.733334;6.833333
77516;PMS7003;68414;53.946;27.634;2023-09-08T00:23:44;11.333333;10.450000;8.333333
77516;PMS7003;68414;53.946;27.634;2023-09-08T00:24:43;10.333333;10.016666;7.816667
77516;PMS7003;68414;53.946;27.634;2023-09-08T00:25:43;10.816667;10.700000;8.283334
77516;PMS7003;68414;53.946;27.634;2023-09-08T00:26:43;12.066667;10.616667;8.900000
77516;PMS7003;68414;53.946;27.634;2023-09-08T00:27:43;11.466666;10.983334;9.000000
77516;PMS7003;68414;53.946;27.634;2023-09-08T00:28:43;13.066667;11.200000;8.000000
77516;PMS7003;68414;53.946;27.634;2023-09-08T00:29:43;12.016666;11.333333;8.783334
77516;PMS7003;68414;53.946;27.634;2023-09-08T00:30:43;11.716666;10.883333;8.216666
77516;PMS7003;68414;53.946;27.634;2023-09-08T00:31:43;11.366667;9.900000;8.266666
77516;PMS7003;68414;53.946;27.634;2023-09-08T00:32:43;13.083333;11.166667;8.683333
77516;PMS7003;68414;53.946;27.634;2023-09-08T00:33:43;11.550000;10.750000;8.300000
77516;PMS7003;68414;53.946;27.634;2023-09-08T00:34:43;11.783334;10.816667;7.816667
77516;PMS7003;68414;53.946;27.634;2023-09-08T00:35:45;10.283334;9.566667;8.100000
77516;PMS7003;68414;53.946;27.634;2023-09-08T00:36:43;11.483334;10.750000;8.533334
77516;PMS7003;68414;53.946;27.634;2023-09-08T00:37:43;11.900000;10.316667;8.183333
77516;PMS7003;68414;53.946;27.634;2023-09-08T00:38:43;12.600000;11.600000;8.650000
77516;PMS7003;68414;53.946;27.634;2023-09-08T00:39:44;12.083333;11.700000;8.350000
77516;PMS7003;68414;53.946;27.634;2023-09-08T00:40:43;11.183333;10.383333;7.683333
77516;PMS7003;68414;53.946;27.634;2023-09-08T00:41:43;9.400000;9.400000;7.833333
77516;PMS7003;68414;53.946;27.634;2023-09-08T00:42:43;11.300000;10.633333;7.966667
77516;PMS7003;68414;53.946;27.634;2023-09-08T00:43:43;9.700000;9.700000;7.466667
77516;PMS7003;68414;53.946;27.634;2023-09-08T00:44:43;10.933333;10.216666;8.266666
77516;PMS7003;68414;53.946;27.634;2023-09-08T00:45:43;11.000000;10.366667;7.966667
77516;PMS7003;68414;53.946;27.634;2023-09-08T00:46:42;10.833333;10.316667;8.033334
77516;PMS7003;68414;53.946;27.634;2023-09-08T00:47:43;11.850000;11.450000;9.250000
77516;PMS7003;68414;53.946;27.634;2023-09-08T00:48:43;12.283334;11.383333;9.200000
77516;PMS7003;68414;53.946;27.634;2023-09-08T00:49:43;12.600000;11.516666;8.933333
77516;PMS7003;68414;53.946;27.634;2023-09-08T00:50:43;11.983334;10.666667;8.716666
77516;PMS7003;68414;53.946;27.634;2023-09-08T00:51:43;12.233334;11.433333;8.850000
77516;PMS7003;68414;53.946;27.634;2023-09-08T00:52:43;11.433333;11.433333;8.850000
77516;PMS7003;68414;53.946;27.634;2023-09-08T00:53:43;12.800000;10.950000;8.416667
77516;PMS7003;68414;53.946;27.634;2023-09-08T00:54:43;12.333333;10.700000;8.200000
77516;PMS7003;68414;53.946;27.634;2023-09-08T00:55:43;11.166667;10.983334;8.466666
77516;PMS7003;68414;53.946;27.634;2023-09-08T00:56:43;10.850000;10.633333;7.916667
77516;PMS7003;68414;53.946;27.634;2023-09-08T00:57:43;12.133333;11.583333;9.283334
77516;PMS7003;68414;53.946;27.634;2023-09-08T00:58:43;13.150000;12.933333;8.583333
77516;PMS7003;68414;53.946;27.634;2023-09-08T00:59:43;11.550000;11.016666;8.500000
77516;PMS7003;68414;53.946;27.634;2023-09-08T01:00:43;13.616667;11.700000;8.916667
77516;PMS7003;68414;53.946;27.634;2023-09-08T01:01:43;11.933333;10.083333;8.416667
77516;PMS7003;68414;53.946;27.634;2023-09-08T01:02:42;12.316667;11.183333;8.816667
77516;PMS7003;68414;53.946;27.634;2023-09-08T01:03:43;10.883333;10.883333;8.183333
77516;PMS7003;68414;53.946;27.634;2023-09-08T01:04:44;11.350000;11.150000;7.433333
77516;PMS7003;68414;53.946;27.634;2023-09-08T01:05:43;9.650000;8.950000;7.250000
77516;PMS7003;68414;53.946;27.634;2023-09-08T01:06:44;12.416667;10.550000;7.666667
77516;PMS7003;68414;53.946;27.634;2023-09-08T01:07:44;12.200000;9.916667;7.583333
77516;PMS7003;68414;53.946;27.634;2023-09-08T01:08:43;12.300000;10.200000;7.316667
77516;PMS7003;68414;53.946;27.634;2023-09-08T01:09:43;9.933333;9.266666;7.933333
77516;PMS7003;68414;53.946;27.634;2023-09-08T01:10:43;13.383333;11.016666;8.433333
77516;PMS7003;68414;53.946;27.634;2023-09-08T01:11:43;10.133333;9.783334;7.500000
77516;PMS7003;68414;53.946;27.634;2023-09-08T01:12:43;11.716666;10.800000;8.483334
77516;PMS7003;68414;53.946;27.634;2023-09-08T01:13:43;13.500000;12.466666;8.866667
77516;PMS7003;68414;53.946;27.634;2023-09-08T01:14:42;11.266666;10.266666;7.633333
77516;PMS7003;68414;53.946;27.634;2023-09-08T01:15:42;11.000000;9.383333;7.350000
77516;PMS7003;68414;53.946;27.634;2023-09-08T01:16:42;11.733334;11.266666;8.233334
77516;PMS7003;68414;53.946;27.634;2023-09-08T01:17:43;14.083333;11.883333;7.700000
77516;PMS7003;68414;53.946;27.634;2023-09-08T01:18:44;11.233334;10.150000;7.483333
77516;PMS7003;68414;53.946;27.634;2023-09-08T01:19:44;11.166667;10.600000;7.533333
77516;PMS7003;68414;53.946;27.634;2023-09-08T01:26:43;11.250000;10.800000;7.800000
77516;PMS7003;68414;53.946;27.634;2023-09-08T01:28:43;10.050000;9.733334;7.183333
77516;PMS7003;68414;53.946;27.634;2023-09-08T01:29:44;11.166667;9.883333;6.666667
77516;PMS7003;68414;53.946;27.634;2023-09-08T01:30:43;10.683333;10.050000;7.900000
77516;PMS7003;68414;53.946;27.634;2023-09-08T01:31:42;9.750000;9.600000;7.600000
77516;PMS7003;68414;53.946;27.634;2023-09-08T01:32:43;11.116667;9.683333;7.166667
77516;PMS7003;68414;53.946;27.634;2023-09-08T01:33:43;9.900000;9.900000;7.050000
77516;PMS7003;68414;53.946;27.634;2023-09-08T01:34:42;9.350000;8.916667;7.250000
77516;PMS7003;68414;53.946;27.634;2023-09-08T01:35:43;9.650000;8.750000;6.533333
77516;PMS7003;68414;53.946;27.634;2023-09-08T01:36:43;7.933333;7.933333;6.400000
77516;PMS7003;68414;53.946;27.634;2023-09-08T01:37:45;10.683333;9.900000;7.866667
77516;PMS7003;68414;53.946;27.634;2023-09-08T01:38:42;10.616667;10.183333;7.050000
77516;PMS7003;68414;53.946;27.634;2023-09-08T01:39:42;10.300000;9.916667;8.216666
77516;PMS7003;68414;53.946;27.634;2023-09-08T01:40:42;9.866667;9.033334;7.200000
77516;PMS7003;68414;53.946;27.634;2023-09-08T01:41:42;9.983334;9.983334;7.416667
77516;PMS7003;68414;53.946;27.634;2023-09-08T01:42:44;10.150000;9.566667;6.916667
77516;PMS7003;68414;53.946;27.634;2023-09-08T01:43:42;10.666667;10.666667;8.000000
77516;PMS7003;68414;53.946;27.634;2023-09-08T01:44:42;10.683333;10.300000;7.483333
77516;PMS7003;68414;53.946;27.634;2023-09-08T01:45:42;10.666667;9.966666;7.933333
77516;PMS7003;68414;53.946;27.634;2023-09-08T01:46:42;10.166667;9.766666;7.816667
77516;PMS7003;68414;53.946;27.634;2023-09-08T01:47:42;17.700001;16.549999;12.700000
77516;PMS7003;68414;53.946;27.634;2023-09-08T01:48:42;16.400000;15.816667;12.083333
77516;PMS7003;68414;53.946;27.634;2023-09-08T01:49:42;12.283334;11.916667;9.683333
77516;PMS7003;68414;53.946;27.634;2023-09-08T01:50:42;12.433333;11.266666;9.050000
77516;PMS7003;68414;53.946;27.634;2023-09-08T01:51:43;12.416667;11.216666;8.916667
77516;PMS7003;68414;53.946;27.634;2023-09-08T01:52:42;10.000000;9.733334;7.516667
77516;PMS7003;68414;53.946;27.634;2023-09-08T01:53:42;11.433333;10.183333;7.816667
77516;PMS7003;68414;53.946;27.634;2023-09-08T01:54:42;12.133333;10.950000;8.650000
77516;PMS7003;68414;53.946;27.634;2023-09-08T01:55:44;11.366667;10.033334;7.566667
77516;PMS7003;68414;53.946;27.634;2023-09-08T01:56:42;10.150000;9.883333;7.750000
77516;PMS7003;68414;53.946;27.634;2023-09-08T01:57:43;10.550000;10.550000;7.766667
77516;PMS7003;68414;53.946;27.634;2023-09-08T01:58:42;11.466666;11.116667;8.466666
77516;PMS7003;68414;53.946;27.634;2023-09-08T01:59:43;10.666667;9.983334;7.250000
77516;PMS7003;68414;53.946;27.634;2023-09-08T02:00:42;10.650000;9.650000;7.333333
77516;PMS7003;68414;53.946;27.634;2023-09-08T02:01:42;9.716666;9.133333;7.050000
77516;PMS7003;68414;53.946;27.634;2023-09-08T02:02:42;9.933333;9.450000;6.783333
77516;PMS7003;68414;53.946;27.634;2023-09-08T02:03:42;10.033334;9.483334;7.250000
77516;PMS7003;68414;53.946;27.634;2023-09-08T02:04:43;10.216666;9.233334;7.550000
77516;PMS7003;68414;53.946;27.634;2023-09-08T02:05:42;10.300000;9.450000;7.333333
77516;PMS7003;68414;53.946;27.634;2023-09-08T02:06:44;10.600000;9.616667;7.600000
77516;PMS7003;68414;53.946;27.634;2023-09-08T02:07:42;10.200000;8.066667;6.216667
77516;PMS7003;68414;53.946;27.634;2023-09-08T02:08:42;8.716666;8.250000;6.466667
77516;PMS7003;68414;53.946;27.634;2023-09-08T02:09:42;9.016666;8.383333;5.783333
77516;PMS7003;68414;53.946;27.634;2023-09-08T02:10:42;8.866667;8.100000;6.350000
77516;PMS7003;68414;53.946;27.634;2023-09-08T02:11:42;9.633333;9.200000;6.850000
77516;PMS7003;68414;53.946;27.634;2023-09-08T02:12:42;8.150000;8.083333;6.250000
77516;PMS7003;68414;53.946;27.634;2023-09-08T02:13:42;9.300000;9.200000;6.450000
77516;PMS7003;68414;53.946;27.634;2023-09-08T02:14:42;9.983334;8.900000;6.833333
77516;PMS7003;68414;53.946;27.634;2023-09-08T02:15:43;9.566667;8.266666;6.500000
77516;PMS7003;68414;53.946;27.634;2023-09-08T02:16:44;9.083333;8.700000;7.266667
77516;PMS7003;68414;53.946;27.634;2023-09-08T02:17:42;10.250000;10.066667;7.400000
77516;PMS7003;68414;53.946;27.634;2023-09-08T02:18:43;10.016666;9.816667;7.250000
77516;PMS7003;68414;53.946;27.634;2023-09-08T02:19:42;9.333333;8.816667;7.016667
77516;PMS7003;68414;53.946;27.634;2023-09-08T02:20:42;7.783333;7.783333;5.866667
77516;PMS7003;68414;53.946;27.634;2023-09-08T02:21:42;8.233334;7.733333;5.866667
77516;PMS7003;68414;53.946;27.634;2023-09-08T02:22:42;8.866667;8.216666;6.500000
77516;PMS7003;68414;53.946;27.634;2023-09-08T02:23:42;8.800000;8.616667;6.600000
77516;PMS7003;68414;53.946;27.634;2023-09-08T02:24:42;10.633333;9.450000;7.183333
77516;PMS7003;68414;53.946;27.634;2023-09-08T02:25:42;10.550000;9.866667;6.850000
77516;PMS7003;68414;53.946;27.634;2023-09-08T02:26:43;11.900000;10.800000;7.816667
77516;PMS7003;68414;53.946;27.634;2023-09-08T02:27:42;9.000000;8.800000;7.033333
77516;PMS7003;68414;53.946;27.634;2023-09-08T02:28:42;8.800000;8.366667;7.400000
77516;PMS7003;68414;53.946;27.634;2023-09-08T02:29:42;10.216666;9.316667;7.150000
77516;PMS7003;68414;53.946;27.634;2023-09-08T02:30:42;10.400000;9.533334;7.416667
77516;PMS7003;68414;53.946;27.634;2023-09-08T02:31:42;10.966666;9.366667;7.366667
77516;PMS7003;68414;53.946;27.634;2023-09-08T02:32:43;9.633333;7.783333;6.600000
77516;PMS7003;68414;53.946;27.634;2023-09-08T02:33:42;11.533334;10.166667;7.800000
77516;PMS7003;68414;53.946;27.634;2023-09-08T02:34:42;11.533334;10.216666;7.633333
77516;PMS7003;68414;53.946;27.634;2023-09-08T02:35:42;10.383333;9.450000;7.483333
77516;PMS7003;68414;53.946;27.634;2023-09-08T02:36:42;10.500000;9.783334;7.716667
77516;PMS7003;68414;53.946;27.634;2023-09-08T02:37:42;10.833333;9.900000;7.683333
77516;PMS7003;68414;53.946;27.634;2023-09-08T02:38:42;9.533334;9.050000;6.633333
77516;PMS7003;68414;53.946;27.634;2023-09-08T02:39:42;8.716666;7.666667;5.766667
77516;PMS7003;68414;53.946;27.634;2023-09-08T02:40:43;9.300000;8.150000;6.783333
77516;PMS7003;68414;53.946;27.634;2023-09-08T02:41:42;9.833333;9.400000;8.066667
77516;PMS7003;68414;53.946;27.634;2023-09-08T02:42:43;10.100000;9.916667;7.816667
77516;PMS7003;68414;53.946;27.634;2023-09-08T02:43:42;10.283334;9.316667;7.183333
77516;PMS7003;68414;53.946;27.634;2023-09-08T02:44:43;9.566667;9.116667;6.716667
77516;PMS7003;68414;53.946;27.634;2023-09-08T02:45:42;10.216666;9.333333;7.033333
77516;PMS7003;68414;53.946;27.634;2023-09-08T02:46:42;9.533334;7.983333;6.683333
77516;PMS7003;68414;53.946;27.634;2023-09-08T02:47:42;10.433333;9.950000;6.850000
77516;PMS7003;68414;53.946;27.634;2023-09-08T02:48:42;9.616667;8.766666;7.083333
77516;PMS7003;68414;53.946;27.634;2023-09-08T02:49:42;9.750000;8.966666;7.333333
77516;PMS7003;68414;53.946;27.634;2023-09-08T02:50:43;10.150000;8.850000;7.283333
77516;PMS7003;68414;53.946;27.634;2023-09-08T02:51:42;9.433333;7.916667;6.650000
77516;PMS7003;68414;53.946;27.634;2023-09-08T02:52:42;9.983334;9.283334;6.966667
77516;PMS7003;68414;53.946;27.634;2023-09-08T02:53:42;8.816667;8.216666;6.983333
77516;PMS7003;68414;53.946;27.634;2023-09-08T02:54:42;10.216666;8.683333;6.283333
77516;PMS7003;68414;53.946;27.634;2023-09-08T02:55:42;9.416667;9.133333;6.883333
77516;PMS7003;68414;53.946;27.634;2023-09-08T02:56:42;8.766666;8.633333;6.833333
77516;PMS7003;68414;53.946;27.634;2023-09-08T02:57:42;9.716666;9.266666;7.133333
77516;PMS7003;68414;53.946;27.634;2023-09-08T02:58:42;8.433333;8.266666;6.300000
77516;PMS7003;68414;53.946;27.634;2023-09-08T02:59:42;8.750000;8.183333;6.616667
77516;PMS7003;68414;53.946;27.634;2023-09-08T03:00:42;11.183333;10.200000;7.750000
77516;PMS7003;68414;53.946;27.634;2023-09-08T03:01:42;9.033334;8.550000;6.866667
77516;PMS7003;68414;53.946;27.634;2023-09-08T03:02:42;9.233334;8.016666;6.433333
77516;PMS7003;68414;53.946;27.634;2023-09-08T03:03:43;7.833333;7.250000;5.816667
77516;PMS7003;68414;53.946;27.634;2023-09-08T03:04:42;9.033334;8.533334;6.533333
77516;PMS7003;68414;53.946;27.634;2023-09-08T03:05:42;9.900000;9.300000;6.666667
77516;PMS7003;68414;53.946;27.634;2023-09-08T03:06:42;10.483334;9.283334;7.083333
77516;PMS7003;68414;53.946;27.634;2023-09-08T03:07:42;9.850000;9.133333;7.433333
77516;PMS7003;68414;53.946;27.634;2023-09-08T03:08:42;11.450000;10.100000;7.733333
77516;PMS7003;68414;53.946;27.634;2023-09-08T03:09:43;11.350000;10.583333;8.033334
77516;PMS7003;68414;53.946;27.634;2023-09-08T03:10:42;11.533334;10.533334;8.516666
77516;PMS7003;68414;53.946;27.634;2023-09-08T03:11:42;11.916667;10.483334;7.983333
77516;PMS7003;68414;53.946;27.634;2023-09-08T03:12:42;10.900000;10.166667;7.433333
77516;PMS7003;68414;53.946;27.634;2023-09-08T03:13:42;12.283334;12.016666;8.633333
77516;PMS7003;68414;53.946;27.634;2023-09-08T03:14:42;11.400000;10.366667;7.733333
77516;PMS7003;68414;53.946;27.634;2023-09-08T03:15:42;12.383333;10.616667;8.633333
77516;PMS7003;68414;53.946;27.634;2023-09-08T03:16:42;9.183333;8.950000;6.900000
77516;PMS7003;68414;53.946;27.634;2023-09-08T03:17:42;10.433333;8.966666;6.683333
77516;PMS7003;68414;53.946;27.634;2023-09-08T03:18:42;10.500000;8.916667;7.366667
77516;PMS7003;68414;53.946;27.634;2023-09-08T03:19:45;9.433333;8.683333;6.750000
77516;PMS7003;68414;53.946;27.634;2023-09-08T03:20:42;8.366667;7.983333;6.666667
77516;PMS7003;68414;53.946;27.634;2023-09-08T03:21:42;10.166667;9.400000;6.950000
77516;PMS7003;68414;53.946;27.634;2023-09-08T03:22:42;9.366667;8.833333;6.650000
77516;PMS7003;68414;53.946;27.634;2023-09-08T03:23:43;8.850000;8.366667;6.650000
77516;PMS7003;68414;53.946;27.634;2023-09-08T03:24:42;9.633333;8.650000;6.833333
77516;PMS7003;68414;53.946;27.634;2023-09-08T03:25:43;8.250000;7.816667;6.383333
77516;PMS7003;68414;53.946;27.634;2023-09-08T03:26:42;8.550000;8.550000;6.466667
77516;PMS7003;68414;53.946;27.634;2023-09-08T03:27:42;9.266666;9.266666;6.916667
77516;PMS7003;68414;53.946;27.634;2023-09-08T03:28:43;9.783334;8.316667;6.366667
77516;PMS7003;68414;53.946;27.634;2023-09-08T03:29:42;10.300000;9.666667;6.900000
77516;PMS7003;68414;53.946;27.634;2023-09-08T03:30:42;10.000000;9.066667;7.266667
77516;PMS7003;68414;53.946;27.634;2023-09-08T03:31:42;10.016666;9.783334;7.583333
77516;PMS7003;68414;53.946;27.634;2023-09-08T03:32:42;10.966666;9.433333;7.600000
77516;PMS7003;68414;53.946;27.634;2023-09-08T03:33:42;11.783334;10.183333;7.600000
77516;PMS7003;68414;53.946;27.634;2023-09-08T03:34:42;8.850000;8.550000;6.533333
77516;PMS7003;68414;53.946;27.634;2023-09-08T03:35:42;8.600000;8.516666;6.933333
77516;PMS7003;68414;53.946;27.634;2023-09-08T03:36:42;10.383333;9.250000;7.016667
77516;PMS7003;68414;53.946;27.634;2023-09-08T03:37:42;8.650000;8.583333;6.583333
77516;PMS7003;68414;53.946;27.634;2023-09-08T03:38:42;10.316667;9.750000;7.783333
77516;PMS7003;68414;53.946;27.634;2023-09-08T03:39:42;10.066667;9.566667;6.950000
77516;PMS7003;68414;53.946;27.634;2023-09-08T03:40:42;11.216666;10.300000;7.400000
77516;PMS7003;68414;53.946;27.634;2023-09-08T03:41:42;10.016666;9.416667;8.016666
77516;PMS7003;68414;53.946;27.634;2023-09-08T03:42:42;9.366667;8.866667;7.383333
77516;PMS7003;68414;53.946;27.634;2023-09-08T03:43:42;10.483334;9.633333;7.450000
77516;PMS7003;68414;53.946;27.634;2023-09-08T03:44:42;10.500000;9.600000;6.800000
77516;PMS7003;68414;53.946;27.634;2023-09-08T03:45:44;7.600000;7.533333;6.216667
77516;PMS7003;68414;53.946;27.634;2023-09-08T03:46:42;10.516666;9.766666;7.850000
77516;PMS7003;68414;53.946;27.634;2023-09-08T03:47:42;12.250000;10.250000;7.766667
77516;PMS7003;68414;53.946;27.634;2023-09-08T03:48:42;9.466666;9.016666;7.133333
77516;PMS7003;68414;53.946;27.634;2023-09-08T03:49:42;8.416667;8.300000;6.600000
77516;PMS7003;68414;53.946;27.634;2023-09-08T03:50:42;9.433333;9.433333;7.250000
77516;PMS7003;68414;53.946;27.634;2023-09-08T03:51:42;9.016666;8.416667;6.233333
77516;PMS7003;68414;53.946;27.634;2023-09-08T03:52:42;10.650000;9.533334;6.500000
77516;PMS7003;68414;53.946;27.634;2023-09-08T03:53:42;10.500000;9.666667;7.550000
77516;PMS7003;68414;53.946;27.634;2023-09-08T03:54:42;8.633333;8.533334;6.500000
77516;PMS7003;68414;53.946;27.634;2023-09-08T03:55:42;10.816667;9.766666;7.400000
77516;PMS7003;68414;53.946;27.634;2023-09-08T03:56:42;9.933333;9.566667;7.533333
77516;PMS7003;68414;53.946;27.634;2023-09-08T03:57:42;7.816667;7.483333;5.416667
77516;PMS7003;68414;53.946;27.634;2023-09-08T03:58:42;9.916667;8.316667;6.816667
77516;PMS7003;68414;53.946;27.634;2023-09-08T03:59:42;11.033334;9.383333;7.850000
77516;PMS7003;68414;53.946;27.634;2023-09-08T04:00:42;12.750000;11.400000;8.650000
77516;PMS7003;68414;53.946;27.634;2023-09-08T04:01:42;12.150000;10.483334;8.200000
77516;PMS7003;68414;53.946;27.634;2023-09-08T04:02:42;12.483334;11.850000;9.400000
77516;PMS7003;68414;53.946;27.634;2023-09-08T04:03:42;12.616667;12.200000;9.083333
77516;PMS7003;68414;53.946;27.634;2023-09-08T04:04:42;13.366667;12.433333;9.033334
77516;PMS7003;68414;53.946;27.634;2023-09-08T04:05:42;13.166667;12.516666;9.766666
77516;PMS7003;68414;53.946;27.634;2023-09-08T04:06:42;12.716666;11.683333;9.100000
77516;PMS7003;68414;53.946;27.634;2023-09-08T04:07:44;12.866667;12.350000;9.250000
77516;PMS7003;68414;53.946;27.634;2023-09-08T04:08:42;11.883333;11.100000;8.083333
77516;PMS7003;68414;53.946;27.634;2023-09-08T04:09:42;10.366667;10.366667;8.716666
77516;PMS7003;68414;53.946;27.634;2023-09-08T04:10:42;9.850000;9.850000;8.016666
77516;PMS7003;68414;53.946;27.634;2023-09-08T04:11:42;12.383333;11.916667;8.316667
77516;PMS7003;68414;53.946;27.634;2023-09-08T04:12:42;11.816667;10.916667;8.516666
77516;PMS7003;68414;53.946;27.634;2023-09-08T04:13:42;10.383333;9.766666;7.516667
77516;PMS7003;68414;53.946;27.634;2023-09-08T04:14:42;9.816667;8.900000;7.183333
77516;PMS7003;68414;53.946;27.634;2023-09-08T04:15:42;9.350000;8.733334;7.366667
77516;PMS7003;68414;53.946;27.634;2023-09-08T04:16:42;10.200000;9.850000;7.633333
77516;PMS7003;68414;53.946;27.634;2023-09-08T04:17:42;10.800000;10.300000;7.833333
77516;PMS7003;68414;53.946;27.634;2023-09-08T04:18:42;11.166667;9.816667;7.333333
77516;PMS7003;68414;53.946;27.634;2023-09-08T04:19:42;10.683333;10.066667;7.950000
77516;PMS7003;68414;53.946;27.634;2023-09-08T04:20:43;11.050000;10.800000;7.966667
77516;PMS7003;68414;53.946;27.634;2023-09-08T04:21:42;10.400000;8.900000;6.933333
77516;PMS7003;68414;53.946;27.634;2023-09-08T04:22:42;11.866667;10.083333;8.233334
77516;PMS7003;68414;53.946;27.634;2023-09-08T04:23:42;12.316667;11.466666;8.600000
77516;PMS7003;68414;53.946;27.634;2023-09-08T04:24:42;10.616667;9.866667;7.750000
77516;PMS7003;68414;53.946;27.634;2023-09-08T04:25:42;11.050000;10.366667;8.083333
77516;PMS7003;68414;53.946;27.634;2023-09-08T04:26:42;11.050000;10.566667;8.866667
77516;PMS7003;68414;53.946;27.634;2023-09-08T04:27:42;13.033334;11.733334;8.500000
77516;PMS7003;68414;53.946;27.634;2023-09-08T04:28:42;13.583333;12.150000;9.550000
77516;PMS7003;68414;53.946;27.634;2023-09-08T04:29:42;13.666667;12.983334;10.066667
77516;PMS7003;68414;53.946;27.634;2023-09-08T04:30:42;15.366667;14.033334;9.883333
77516;PMS7003;68414;53.946;27.634;2023-09-08T04:31:42;14.500000;13.850000;10.483334
77516;PMS7003;68414;53.946;27.634;2023-09-08T04:32:42;14.783334;13.116667;10.416667
77516;PMS7003;68414;53.946;27.634;2023-09-08T04:33:42;14.833333;14.716666;11.366667
77516;PMS7003;68414;53.946;27.634;2023-09-08T04:34:43;13.616667;11.950000;9.633333
77516;PMS7003;68414;53.946;27.634;2023-09-08T04:35:43;13.483334;11.816667;9.166667
77516;PMS7003;68414;53.946;27.634;2023-09-08T04:36:42;12.483334;11.383333;8.416667
77516;PMS7003;68414;53.946;27.634;2023-09-08T04:37:42;12.266666;11.900000;9.283334
77516;PMS7003;68414;53.946;27.634;2023-09-08T04:38:42;10.650000;9.983334;7.616667
77516;PMS7003;68414;53.946;27.634;2023-09-08T04:39:43;15.166667;14.350000;9.800000
77516;PMS7003;68414;53.946;27.634;2023-09-08T04:41:42;13.433333;12.783334;9.950000
77516;PMS7003;68414;53.946;27.634;2023-09-08T04:42:42;16.000000;13.950000;9.816667
77516;PMS7003;68414;53.946;27.634;2023-09-08T04:43:42;13.583333;13.583333;9.900000
77516;PMS7003;68414;53.946;27.634;2023-09-08T04:44:42;13.233334;12.933333;9.833333
77516;PMS7003;68414;53.946;27.634;2023-09-08T04:45:42;14.366667;13.250000;10.133333
77516;PMS7003;68414;53.946;27.634;2023-09-08T04:46:42;14.466666;13.366667;10.216666
77516;PMS7003;68414;53.946;27.634;2023-09-08T04:47:42;15.850000;13.683333;10.133333
77516;PMS7003;68414;53.946;27.634;2023-09-08T04:48:42;14.100000;13.716666;10.966666
77516;PMS7003;68414;53.946;27.634;2023-09-08T04:49:42;15.966666;15.583333;12.000000
77516;PMS7003;68414;53.946;27.634;2023-09-08T04:50:42;14.550000;13.850000;10.266666
77516;PMS7003;68414;53.946;27.634;2023-09-08T04:51:43;15.600000;14.633333;11.433333
77516;PMS7003;68414;53.946;27.634;2023-09-08T04:52:42;15.983334;15.266666;11.600000
77516;PMS7003;68414;53.946;27.634;2023-09-08T04:53:42;19.250000;16.566668;11.783334
77516;PMS7003;68414;53.946;27.634;2023-09-08T04:54:42;15.066667;13.533334;10.916667
77516;PMS7003;68414;53.946;27.634;2023-09-08T04:55:43;15.300000;14.133333;11.133333
77516;PMS7003;68414;53.946;27.634;2023-09-08T04:56:42;16.833334;16.083334;12.466666
77516;PMS7003;68414;53.946;27.634;2023-09-08T04:57:42;17.133333;16.166666;12.616667